sensor_id;sensor_type;location;lat;lon;timestamp;P1;durP1;ratioP1;P2;durP2;ratioP2
30998;SDS011;20549;50.042;8.968;2023-08-07T00:01:38;1.90;;;0.80;;
30998;SDS011;20549;50.042;8.968;2023-08-07T00:04:05;1.15;;;1.00;;
30998;SDS011;20549;50.042;8.968;2023-08-07T00:06:32;1.93;;;0.90;;
30998;SDS011;20549;50.042;8.968;2023-08-07T00:12:18;0.88;;;0.88;;
30998;SDS011;20549;50.042;8.968;2023-08-07T00:14:47;1.75;;;1.57;;
30998;SDS011;20549;50.042;8.968;2023-08-07T00:17:11;1.32;;;1.00;;
30998;SDS011;20549;50.042;8.968;2023-08-07T00:19:38;1.17;;;0.80;;
30998;SDS011;20549;50.042;8.968;2023-08-07T00:22:05;1.70;;;1.00;;
30998;SDS011;20549;50.042;8.968;2023-08-07T00:24:32;1.65;;;0.85;;
30998;SDS011;20549;50.042;8.968;2023-08-07T00:26:58;2.90;;;0.85;;
30998;SDS011;20549;50.042;8.968;2023-08-07T00:29:24;1.22;;;0.82;;
30998;SDS011;20549;50.042;8.968;2023-08-07T00:31:51;1.62;;;1.47;;
30998;SDS011;20549;50.042;8.968;2023-08-07T00:34:18;2.17;;;0.90;;
30998;SDS011;20549;50.042;8.968;2023-08-07T00:36:44;1.27;;;1.00;;
30998;SDS011;20549;50.042;8.968;2023-08-07T00:39:11;1.47;;;0.80;;
30998;SDS011;20549;50.042;8.968;2023-08-07T00:41:37;0.83;;;0.80;;
30998;SDS011;20549;50.042;8.968;2023-08-07T00:44:04;1.55;;;1.00;;
30998;SDS011;20549;50.042;8.968;2023-08-07T00:46:30;1.27;;;1.00;;
30998;SDS011;20549;50.042;8.968;2023-08-07T00:48:57;0.67;;;0.63;;
30998;SDS011;20549;50.042;8.968;2023-08-07T00:51:24;2.02;;;0.82;;
30998;SDS011;20549;50.042;8.968;2023-08-07T00:53:50;4.50;;;1.03;;
30998;SDS011;20549;50.042;8.968;2023-08-07T00:56:17;1.80;;;0.90;;
30998;SDS011;20549;50.042;8.968;2023-08-07T00:58:43;1.13;;;0.80;;
30998;SDS011;20549;50.042;8.968;2023-08-07T01:01:10;1.17;;;0.82;;
30998;SDS011;20549;50.042;8.968;2023-08-07T01:03:37;1.17;;;1.00;;
30998;SDS011;20549;50.042;8.968;2023-08-07T01:06:03;1.23;;;0.93;;
30998;SDS011;20549;50.042;8.968;2023-08-07T01:08:30;1.92;;;0.80;;
30998;SDS011;20549;50.042;8.968;2023-08-07T01:16:37;1.07;;;1.00;;
30998;SDS011;20549;50.042;8.968;2023-08-07T01:19:03;1.00;;;0.90;;
30998;SDS011;20549;50.042;8.968;2023-08-07T01:21:28;2.05;;;1.20;;
30998;SDS011;20549;50.042;8.968;2023-08-07T01:23:55;0.97;;;0.90;;
30998;SDS011;20549;50.042;8.968;2023-08-07T01:26:22;2.87;;;1.07;;
30998;SDS011;20549;50.042;8.968;2023-08-07T01:28:59;2.83;;;1.00;;
30998;SDS011;20549;50.042;8.968;2023-08-07T01:31:24;2.77;;;1.05;;
30998;SDS011;20549;50.042;8.968;2023-08-07T01:33:54;4.27;;;1.13;;
30998;SDS011;20549;50.042;8.968;2023-08-07T01:36:17;2.40;;;1.20;;
30998;SDS011;20549;50.042;8.968;2023-08-07T01:38:44;1.70;;;1.00;;
30998;SDS011;20549;50.042;8.968;2023-08-07T01:41:10;1.87;;;1.40;;
30998;SDS011;20549;50.042;8.968;2023-08-07T01:43:37;1.07;;;0.97;;
30998;SDS011;20549;50.042;8.968;2023-08-07T01:46:04;1.17;;;1.07;;
30998;SDS011;20549;50.042;8.968;2023-08-07T01:48:30;0.95;;;0.88;;
30998;SDS011;20549;50.042;8.968;2023-08-07T01:50:57;0.70;;;0.70;;
30998;SDS011;20549;50.042;8.968;2023-08-07T01:53:23;2.20;;;0.90;;
30998;SDS011;20549;50.042;8.968;2023-08-07T01:55:50;1.70;;;0.80;;
30998;SDS011;20549;50.042;8.968;2023-08-07T01:58:17;1.10;;;0.90;;
30998;SDS011;20549;50.042;8.968;2023-08-07T02:00:43;2.33;;;1.20;;
30998;SDS011;20549;50.042;8.968;2023-08-07T02:03:10;2.63;;;1.17;;
30998;SDS011;20549;50.042;8.968;2023-08-07T02:05:36;1.87;;;1.10;;
30998;SDS011;20549;50.042;8.968;2023-08-07T02:08:03;1.50;;;1.10;;
30998;SDS011;20549;50.042;8.968;2023-08-07T02:10:29;3.10;;;1.50;;
30998;SDS011;20549;50.042;8.968;2023-08-07T02:12:57;1.70;;;1.00;;
30998;SDS011;20549;50.042;8.968;2023-08-07T02:15:23;3.17;;;1.20;;
30998;SDS011;20549;50.042;8.968;2023-08-07T02:17:49;1.13;;;1.03;;
30998;SDS011;20549;50.042;8.968;2023-08-07T02:22:52;1.73;;;1.30;;
30998;SDS011;20549;50.042;8.968;2023-08-07T02:25:18;2.13;;;1.33;;
30998;SDS011;20549;50.042;8.968;2023-08-07T02:27:45;2.43;;;1.27;;
30998;SDS011;20549;50.042;8.968;2023-08-07T02:30:12;3.83;;;1.50;;
30998;SDS011;20549;50.042;8.968;2023-08-07T02:32:38;2.10;;;1.37;;
30998;SDS011;20549;50.042;8.968;2023-08-07T02:35:05;1.35;;;1.22;;
30998;SDS011;20549;50.042;8.968;2023-08-07T02:37:31;3.07;;;1.70;;
30998;SDS011;20549;50.042;8.968;2023-08-07T02:39:58;1.63;;;1.50;;
30998;SDS011;20549;50.042;8.968;2023-08-07T02:42:25;2.93;;;1.50;;
30998;SDS011;20549;50.042;8.968;2023-08-07T02:44:51;3.37;;;1.62;;
30998;SDS011;20549;50.042;8.968;2023-08-07T02:47:18;2.50;;;1.40;;
30998;SDS011;20549;50.042;8.968;2023-08-07T02:49:44;1.42;;;1.17;;
30998;SDS011;20549;50.042;8.968;2023-08-07T02:52:11;3.87;;;1.40;;
30998;SDS011;20549;50.042;8.968;2023-08-07T02:54:38;1.10;;;1.00;;
30998;SDS011;20549;50.042;8.968;2023-08-07T02:57:04;2.65;;;1.40;;
30998;SDS011;20549;50.042;8.968;2023-08-07T02:59:31;3.27;;;1.42;;
30998;SDS011;20549;50.042;8.968;2023-08-07T03:01:57;3.30;;;1.67;;
30998;SDS011;20549;50.042;8.968;2023-08-07T03:04:24;3.92;;;1.77;;
30998;SDS011;20549;50.042;8.968;2023-08-07T03:06:50;4.75;;;1.80;;
30998;SDS011;20549;50.042;8.968;2023-08-07T03:09:17;4.12;;;1.27;;
30998;SDS011;20549;50.042;8.968;2023-08-07T03:11:44;2.27;;;1.47;;
30998;SDS011;20549;50.042;8.968;2023-08-07T03:14:10;3.27;;;1.65;;
30998;SDS011;20549;50.042;8.968;2023-08-07T03:16:37;2.10;;;1.80;;
30998;SDS011;20549;50.042;8.968;2023-08-07T03:19:03;2.08;;;1.65;;
30998;SDS011;20549;50.042;8.968;2023-08-07T03:21:30;2.52;;;1.70;;
30998;SDS011;20549;50.042;8.968;2023-08-07T03:23:57;3.20;;;2.03;;
30998;SDS011;20549;50.042;8.968;2023-08-07T03:26:23;2.50;;;1.50;;
30998;SDS011;20549;50.042;8.968;2023-08-07T03:28:50;2.20;;;1.50;;
30998;SDS011;20549;50.042;8.968;2023-08-07T03:31:16;2.67;;;1.83;;
30998;SDS011;20549;50.042;8.968;2023-08-07T03:33:43;4.37;;;1.70;;
30998;SDS011;20549;50.042;8.968;2023-08-07T03:36:10;3.67;;;1.40;;
30998;SDS011;20549;50.042;8.968;2023-08-07T03:38:36;2.70;;;1.63;;
30998;SDS011;20549;50.042;8.968;2023-08-07T03:41:03;2.17;;;1.60;;
30998;SDS011;20549;50.042;8.968;2023-08-07T03:43:29;4.90;;;1.82;;
30998;SDS011;20549;50.042;8.968;2023-08-07T03:45:56;3.58;;;1.90;;
30998;SDS011;20549;50.042;8.968;2023-08-07T03:48:22;2.58;;;1.50;;
30998;SDS011;20549;50.042;8.968;2023-08-07T03:50:49;2.80;;;1.80;;
30998;SDS011;20549;50.042;8.968;2023-08-07T03:53:16;2.93;;;1.73;;
30998;SDS011;20549;50.042;8.968;2023-08-07T03:55:42;2.93;;;1.50;;
30998;SDS011;20549;50.042;8.968;2023-08-07T03:58:09;4.40;;;1.80;;
30998;SDS011;20549;50.042;8.968;2023-08-07T04:00:36;3.05;;;1.52;;
30998;SDS011;20549;50.042;8.968;2023-08-07T04:03:02;2.30;;;1.77;;
30998;SDS011;20549;50.042;8.968;2023-08-07T04:05:29;2.33;;;1.95;;
30998;SDS011;20549;50.042;8.968;2023-08-07T04:07:55;2.30;;;1.95;;
30998;SDS011;20549;50.042;8.968;2023-08-07T04:10:22;4.33;;;1.60;;
30998;SDS011;20549;50.042;8.968;2023-08-07T04:12:48;2.57;;;1.70;;
30998;SDS011;20549;50.042;8.968;2023-08-07T04:15:15;2.40;;;1.37;;
30998;SDS011;20549;50.042;8.968;2023-08-07T04:17:42;3.23;;;2.03;;
30998;SDS011;20549;50.042;8.968;2023-08-07T04:20:08;3.17;;;1.85;;
30998;SDS011;20549;50.042;8.968;2023-08-07T04:22:35;3.20;;;1.83;;
30998;SDS011;20549;50.042;8.968;2023-08-07T04:25:01;1.87;;;1.65;;
30998;SDS011;20549;50.042;8.968;2023-08-07T04:27:28;2.02;;;1.80;;
30998;SDS011;20549;50.042;8.968;2023-08-07T04:29:55;2.67;;;1.60;;
30998;SDS011;20549;50.042;8.968;2023-08-07T04:32:21;3.42;;;1.82;;
30998;SDS011;20549;50.042;8.968;2023-08-07T04:34:48;3.02;;;1.77;;
30998;SDS011;20549;50.042;8.968;2023-08-07T04:37:14;3.42;;;2.10;;
30998;SDS011;20549;50.042;8.968;2023-08-07T04:39:41;2.87;;;2.20;;
30998;SDS011;20549;50.042;8.968;2023-08-07T04:42:07;2.20;;;1.93;;
30998;SDS011;20549;50.042;8.968;2023-08-07T04:44:34;2.12;;;1.90;;
30998;SDS011;20549;50.042;8.968;2023-08-07T04:47:01;5.37;;;2.20;;
30998;SDS011;20549;50.042;8.968;2023-08-07T04:49:27;2.40;;;1.87;;
30998;SDS011;20549;50.042;8.968;2023-08-07T04:51:54;2.10;;;1.72;;
30998;SDS011;20549;50.042;8.968;2023-08-07T04:54:20;3.08;;;1.50;;
30998;SDS011;20549;50.042;8.968;2023-08-07T04:56:47;3.45;;;2.12;;
30998;SDS011;20549;50.042;8.968;2023-08-07T04:59:14;2.02;;;1.85;;
30998;SDS011;20549;50.042;8.968;2023-08-07T05:01:40;2.42;;;1.75;;
30998;SDS011;20549;50.042;8.968;2023-08-07T05:04:07;2.77;;;1.65;;
30998;SDS011;20549;50.042;8.968;2023-08-07T05:06:33;3.15;;;1.60;;
30998;SDS011;20549;50.042;8.968;2023-08-07T05:09:00;2.87;;;1.85;;
30998;SDS011;20549;50.042;8.968;2023-08-07T05:11:27;3.98;;;1.90;;
30998;SDS011;20549;50.042;8.968;2023-08-07T05:13:53;2.10;;;1.85;;
30998;SDS011;20549;50.042;8.968;2023-08-07T05:16:20;2.75;;;1.72;;
30998;SDS011;20549;50.042;8.968;2023-08-07T05:18:46;3.67;;;1.65;;
30998;SDS011;20549;50.042;8.968;2023-08-07T05:21:13;1.62;;;1.52;;
30998;SDS011;20549;50.042;8.968;2023-08-07T05:23:39;3.85;;;1.65;;
30998;SDS011;20549;50.042;8.968;2023-08-07T05:26:06;1.98;;;1.65;;
30998;SDS011;20549;50.042;8.968;2023-08-07T05:28:33;3.27;;;1.77;;
30998;SDS011;20549;50.042;8.968;2023-08-07T05:30:59;1.65;;;1.55;;
30998;SDS011;20549;50.042;8.968;2023-08-07T05:33:26;4.42;;;1.90;;
30998;SDS011;20549;50.042;8.968;2023-08-07T05:35:52;2.17;;;1.50;;
30998;SDS011;20549;50.042;8.968;2023-08-07T05:38:19;2.35;;;1.60;;
30998;SDS011;20549;50.042;8.968;2023-08-07T05:40:46;4.85;;;2.45;;
30998;SDS011;20549;50.042;8.968;2023-08-07T05:43:12;3.37;;;1.80;;
30998;SDS011;20549;50.042;8.968;2023-08-07T05:45:39;3.37;;;1.70;;
30998;SDS011;20549;50.042;8.968;2023-08-07T05:48:05;3.70;;;2.40;;
30998;SDS011;20549;50.042;8.968;2023-08-07T05:50:32;4.78;;;2.12;;
30998;SDS011;20549;50.042;8.968;2023-08-07T05:52:59;4.53;;;2.20;;
30998;SDS011;20549;50.042;8.968;2023-08-07T05:55:25;3.50;;;1.72;;
30998;SDS011;20549;50.042;8.968;2023-08-07T05:57:52;2.85;;;2.00;;
30998;SDS011;20549;50.042;8.968;2023-08-07T06:00:18;3.42;;;2.08;;
30998;SDS011;20549;50.042;8.968;2023-08-07T06:02:45;2.08;;;1.65;;
30998;SDS011;20549;50.042;8.968;2023-08-07T06:05:11;2.42;;;1.70;;
30998;SDS011;20549;50.042;8.968;2023-08-07T06:07:38;3.08;;;1.65;;
30998;SDS011;20549;50.042;8.968;2023-08-07T06:10:05;2.20;;;1.52;;
30998;SDS011;20549;50.042;8.968;2023-08-07T06:12:31;3.62;;;1.90;;
30998;SDS011;20549;50.042;8.968;2023-08-07T06:14:58;2.22;;;1.75;;
30998;SDS011;20549;50.042;8.968;2023-08-07T06:17:25;4.22;;;2.05;;
30998;SDS011;20549;50.042;8.968;2023-08-07T06:19:52;2.90;;;1.82;;
30998;SDS011;20549;50.042;8.968;2023-08-07T06:22:18;4.55;;;1.80;;
30998;SDS011;20549;50.042;8.968;2023-08-07T06:24:44;3.42;;;1.70;;
30998;SDS011;20549;50.042;8.968;2023-08-07T06:27:11;4.20;;;1.85;;
30998;SDS011;20549;50.042;8.968;2023-08-07T06:29:37;2.95;;;1.70;;
30998;SDS011;20549;50.042;8.968;2023-08-07T06:32:04;5.42;;;2.22;;
30998;SDS011;20549;50.042;8.968;2023-08-07T06:34:31;3.33;;;2.08;;
30998;SDS011;20549;50.042;8.968;2023-08-07T06:36:57;4.95;;;1.70;;
30998;SDS011;20549;50.042;8.968;2023-08-07T06:39:24;2.77;;;1.80;;
30998;SDS011;20549;50.042;8.968;2023-08-07T06:41:50;2.35;;;1.90;;
30998;SDS011;20549;50.042;8.968;2023-08-07T06:46:57;2.00;;;1.52;;
30998;SDS011;20549;50.042;8.968;2023-08-07T06:49:24;3.45;;;2.02;;
30998;SDS011;20549;50.042;8.968;2023-08-07T06:51:50;2.40;;;1.22;;
30998;SDS011;20549;50.042;8.968;2023-08-07T06:54:17;1.82;;;1.67;;
30998;SDS011;20549;50.042;8.968;2023-08-07T06:56:43;2.52;;;1.60;;
30998;SDS011;20549;50.042;8.968;2023-08-07T06:59:10;2.50;;;1.50;;
30998;SDS011;20549;50.042;8.968;2023-08-07T07:01:36;2.45;;;1.90;;
30998;SDS011;20549;50.042;8.968;2023-08-07T07:04:03;2.87;;;1.57;;
30998;SDS011;20549;50.042;8.968;2023-08-07T07:06:30;3.45;;;1.57;;
30998;SDS011;20549;50.042;8.968;2023-08-07T07:08:56;2.02;;;1.82;;
30998;SDS011;20549;50.042;8.968;2023-08-07T07:11:23;3.33;;;1.57;;
30998;SDS011;20549;50.042;8.968;2023-08-07T07:13:50;3.60;;;1.62;;
30998;SDS011;20549;50.042;8.968;2023-08-07T07:16:17;2.67;;;1.70;;
30998;SDS011;20549;50.042;8.968;2023-08-07T07:18:45;2.58;;;1.50;;
30998;SDS011;20549;50.042;8.968;2023-08-07T07:21:12;2.40;;;1.40;;
30998;SDS011;20549;50.042;8.968;2023-08-07T07:23:38;2.12;;;1.50;;
30998;SDS011;20549;50.042;8.968;2023-08-07T07:26:05;3.52;;;1.65;;
30998;SDS011;20549;50.042;8.968;2023-08-07T07:28:32;2.72;;;1.70;;
30998;SDS011;20549;50.042;8.968;2023-08-07T07:30:58;3.05;;;1.50;;
30998;SDS011;20549;50.042;8.968;2023-08-07T07:33:25;3.33;;;1.70;;
30998;SDS011;20549;50.042;8.968;2023-08-07T07:35:51;2.45;;;1.60;;
30998;SDS011;20549;50.042;8.968;2023-08-07T07:38:18;2.55;;;1.47;;
30998;SDS011;20549;50.042;8.968;2023-08-07T07:40:45;1.40;;;1.30;;
30998;SDS011;20549;50.042;8.968;2023-08-07T07:43:11;1.47;;;1.35;;
30998;SDS011;20549;50.042;8.968;2023-08-07T07:45:38;1.40;;;1.30;;
30998;SDS011;20549;50.042;8.968;2023-08-07T07:48:04;1.77;;;1.40;;
30998;SDS011;20549;50.042;8.968;2023-08-07T07:50:31;3.60;;;1.70;;
30998;SDS011;20549;50.042;8.968;2023-08-07T07:52:58;2.45;;;1.50;;
30998;SDS011;20549;50.042;8.968;2023-08-07T07:55:24;2.33;;;1.80;;
30998;SDS011;20549;50.042;8.968;2023-08-07T07:57:51;2.37;;;1.50;;
30998;SDS011;20549;50.042;8.968;2023-08-07T08:00:17;2.87;;;1.45;;
30998;SDS011;20549;50.042;8.968;2023-08-07T08:02:44;1.60;;;1.50;;
30998;SDS011;20549;50.042;8.968;2023-08-07T08:05:10;2.37;;;1.57;;
30998;SDS011;20549;50.042;8.968;2023-08-07T08:07:37;2.83;;;1.57;;
30998;SDS011;20549;50.042;8.968;2023-08-07T08:10:04;3.42;;;1.95;;
30998;SDS011;20549;50.042;8.968;2023-08-07T08:12:30;2.87;;;1.72;;
30998;SDS011;20549;50.042;8.968;2023-08-07T08:14:57;1.50;;;1.40;;
30998;SDS011;20549;50.042;8.968;2023-08-07T08:17:23;5.85;;;2.30;;
30998;SDS011;20549;50.042;8.968;2023-08-07T08:19:50;2.58;;;1.60;;
30998;SDS011;20549;50.042;8.968;2023-08-07T08:22:17;2.90;;;2.15;;
30998;SDS011;20549;50.042;8.968;2023-08-07T08:24:43;4.03;;;1.75;;
30998;SDS011;20549;50.042;8.968;2023-08-07T08:27:10;2.47;;;1.55;;
30998;SDS011;20549;50.042;8.968;2023-08-07T08:29:36;2.47;;;1.62;;
30998;SDS011;20549;50.042;8.968;2023-08-07T08:32:03;1.72;;;1.57;;
30998;SDS011;20549;50.042;8.968;2023-08-07T08:34:30;3.00;;;1.80;;
30998;SDS011;20549;50.042;8.968;2023-08-07T08:36:56;5.17;;;2.08;;
30998;SDS011;20549;50.042;8.968;2023-08-07T08:39:23;1.47;;;1.32;;
30998;SDS011;20549;50.042;8.968;2023-08-07T08:41:49;2.15;;;1.55;;
30998;SDS011;20549;50.042;8.968;2023-08-07T08:44:16;4.60;;;1.92;;
30998;SDS011;20549;50.042;8.968;2023-08-07T08:46:42;1.85;;;1.50;;
30998;SDS011;20549;50.042;8.968;2023-08-07T08:49:10;1.75;;;1.42;;
30998;SDS011;20549;50.042;8.968;2023-08-07T08:51:36;1.95;;;1.57;;
30998;SDS011;20549;50.042;8.968;2023-08-07T08:54:02;3.55;;;1.65;;
30998;SDS011;20549;50.042;8.968;2023-08-07T08:56:32;2.22;;;1.60;;
30998;SDS011;20549;50.042;8.968;2023-08-07T08:58:58;3.15;;;1.52;;
30998;SDS011;20549;50.042;8.968;2023-08-07T09:01:25;1.50;;;1.40;;
30998;SDS011;20549;50.042;8.968;2023-08-07T09:03:53;1.50;;;1.40;;
30998;SDS011;20549;50.042;8.968;2023-08-07T09:06:18;2.83;;;1.37;;
30998;SDS011;20549;50.042;8.968;2023-08-07T09:08:44;2.00;;;1.50;;
30998;SDS011;20549;50.042;8.968;2023-08-07T09:11:11;1.60;;;1.50;;
30998;SDS011;20549;50.042;8.968;2023-08-07T09:13:37;3.67;;;1.52;;
30998;SDS011;20549;50.042;8.968;2023-08-07T09:16:04;1.40;;;1.30;;
30998;SDS011;20549;50.042;8.968;2023-08-07T09:18:31;2.30;;;1.77;;
30998;SDS011;20549;50.042;8.968;2023-08-07T09:20:57;2.40;;;1.60;;
30998;SDS011;20549;50.042;8.968;2023-08-07T09:23:24;3.62;;;1.80;;
30998;SDS011;20549;50.042;8.968;2023-08-07T09:26:00;2.95;;;1.80;;
30998;SDS011;20549;50.042;8.968;2023-08-07T09:28:26;1.92;;;1.40;;
30998;SDS011;20549;50.042;8.968;2023-08-07T09:30:53;2.80;;;1.52;;
30998;SDS011;20549;50.042;8.968;2023-08-07T09:33:29;1.87;;;1.45;;
30998;SDS011;20549;50.042;8.968;2023-08-07T09:35:52;3.15;;;1.80;;
30998;SDS011;20549;50.042;8.968;2023-08-07T09:38:18;3.33;;;1.60;;
30998;SDS011;20549;50.042;8.968;2023-08-07T09:40:45;1.95;;;1.50;;
30998;SDS011;20549;50.042;8.968;2023-08-07T09:43:11;5.53;;;1.90;;
30998;SDS011;20549;50.042;8.968;2023-08-07T09:45:38;3.58;;;1.52;;
30998;SDS011;20549;50.042;8.968;2023-08-07T09:48:06;2.45;;;1.70;;
30998;SDS011;20549;50.042;8.968;2023-08-07T09:50:34;2.10;;;1.65;;
30998;SDS011;20549;50.042;8.968;2023-08-07T09:53:00;2.08;;;1.82;;
30998;SDS011;20549;50.042;8.968;2023-08-07T09:55:27;3.05;;;1.67;;
30998;SDS011;20549;50.042;8.968;2023-08-07T09:57:53;2.83;;;1.67;;
30998;SDS011;20549;50.042;8.968;2023-08-07T10:00:20;2.35;;;1.62;;
30998;SDS011;20549;50.042;8.968;2023-08-07T10:02:47;2.58;;;1.87;;
30998;SDS011;20549;50.042;8.968;2023-08-07T10:05:13;2.67;;;1.60;;
30998;SDS011;20549;50.042;8.968;2023-08-07T10:07:40;2.55;;;1.90;;
30998;SDS011;20549;50.042;8.968;2023-08-07T10:10:06;3.22;;;1.85;;
30998;SDS011;20549;50.042;8.968;2023-08-07T10:12:33;3.33;;;1.75;;
30998;SDS011;20549;50.042;8.968;2023-08-07T10:15:00;1.37;;;1.22;;
30998;SDS011;20549;50.042;8.968;2023-08-07T10:17:26;4.28;;;2.10;;
30998;SDS011;20549;50.042;8.968;2023-08-07T10:19:53;2.80;;;2.00;;
30998;SDS011;20549;50.042;8.968;2023-08-07T10:22:19;3.67;;;2.00;;
30998;SDS011;20549;50.042;8.968;2023-08-07T10:24:47;3.37;;;1.72;;
30998;SDS011;20549;50.042;8.968;2023-08-07T10:27:13;2.60;;;1.80;;
30998;SDS011;20549;50.042;8.968;2023-08-07T10:29:39;4.17;;;2.17;;
30998;SDS011;20549;50.042;8.968;2023-08-07T10:32:06;2.02;;;1.65;;
30998;SDS011;20549;50.042;8.968;2023-08-07T10:34:35;1.60;;;1.50;;
30998;SDS011;20549;50.042;8.968;2023-08-07T10:37:01;1.62;;;1.40;;
30998;SDS011;20549;50.042;8.968;2023-08-07T10:39:28;1.30;;;1.20;;
30998;SDS011;20549;50.042;8.968;2023-08-07T10:41:55;1.42;;;1.27;;
30998;SDS011;20549;50.042;8.968;2023-08-07T10:44:22;1.77;;;1.50;;
30998;SDS011;20549;50.042;8.968;2023-08-07T10:46:54;1.45;;;1.35;;
30998;SDS011;20549;50.042;8.968;2023-08-07T10:49:36;1.30;;;1.20;;
30998;SDS011;20549;50.042;8.968;2023-08-07T10:54:38;2.87;;;1.45;;
30998;SDS011;20549;50.042;8.968;2023-08-07T10:57:04;1.30;;;1.20;;
30998;SDS011;20549;50.042;8.968;2023-08-07T10:59:30;1.10;;;1.00;;
30998;SDS011;20549;50.042;8.968;2023-08-07T11:01:57;2.92;;;1.70;;
30998;SDS011;20549;50.042;8.968;2023-08-07T11:04:23;1.22;;;1.15;;
30998;SDS011;20549;50.042;8.968;2023-08-07T11:06:50;1.40;;;1.27;;
30998;SDS011;20549;50.042;8.968;2023-08-07T11:09:17;1.15;;;1.02;;
30998;SDS011;20549;50.042;8.968;2023-08-07T11:11:47;1.85;;;1.50;;
30998;SDS011;20549;50.042;8.968;2023-08-07T11:14:14;1.67;;;1.30;;
30998;SDS011;20549;50.042;8.968;2023-08-07T11:16:43;1.55;;;1.20;;
30998;SDS011;20549;50.042;8.968;2023-08-07T11:19:09;1.30;;;1.20;;
30998;SDS011;20549;50.042;8.968;2023-08-07T11:21:36;2.33;;;1.37;;
30998;SDS011;20549;50.042;8.968;2023-08-07T11:24:02;1.90;;;1.25;;
30998;SDS011;20549;50.042;8.968;2023-08-07T11:26:29;2.12;;;1.50;;
30998;SDS011;20549;50.042;8.968;2023-08-07T11:28:55;1.80;;;1.60;;
30998;SDS011;20549;50.042;8.968;2023-08-07T11:31:22;2.40;;;1.37;;
30998;SDS011;20549;50.042;8.968;2023-08-07T11:33:52;5.65;;;2.05;;
30998;SDS011;20549;50.042;8.968;2023-08-07T11:36:18;2.10;;;1.30;;
30998;SDS011;20549;50.042;8.968;2023-08-07T11:38:45;2.65;;;1.20;;
30998;SDS011;20549;50.042;8.968;2023-08-07T11:41:12;1.47;;;1.20;;
30998;SDS011;20549;50.042;8.968;2023-08-07T11:43:38;1.70;;;1.57;;
30998;SDS011;20549;50.042;8.968;2023-08-07T11:46:05;2.17;;;1.67;;
30998;SDS011;20549;50.042;8.968;2023-08-07T11:48:32;1.57;;;1.30;;
30998;SDS011;20549;50.042;8.968;2023-08-07T11:50:58;1.50;;;1.40;;
30998;SDS011;20549;50.042;8.968;2023-08-07T11:53:25;3.58;;;2.00;;
30998;SDS011;20549;50.042;8.968;2023-08-07T11:55:58;2.10;;;1.22;;
30998;SDS011;20549;50.042;8.968;2023-08-07T11:58:24;3.20;;;1.20;;
30998;SDS011;20549;50.042;8.968;2023-08-07T12:00:50;3.65;;;1.70;;
30998;SDS011;20549;50.042;8.968;2023-08-07T12:03:27;1.00;;;1.00;;
30998;SDS011;20549;50.042;8.968;2023-08-07T12:05:55;2.05;;;1.50;;
30998;SDS011;20549;50.042;8.968;2023-08-07T12:08:22;1.22;;;1.12;;
30998;SDS011;20549;50.042;8.968;2023-08-07T12:10:49;2.15;;;1.50;;
30998;SDS011;20549;50.042;8.968;2023-08-07T12:13:19;1.70;;;1.60;;
30998;SDS011;20549;50.042;8.968;2023-08-07T12:15:44;1.50;;;1.12;;
30998;SDS011;20549;50.042;8.968;2023-08-07T12:18:10;1.72;;;1.32;;
30998;SDS011;20549;50.042;8.968;2023-08-07T12:20:37;2.12;;;1.45;;
30998;SDS011;20549;50.042;8.968;2023-08-07T12:23:04;4.45;;;1.75;;
30998;SDS011;20549;50.042;8.968;2023-08-07T12:25:30;1.17;;;1.12;;
30998;SDS011;20549;50.042;8.968;2023-08-07T12:27:57;2.45;;;1.82;;
30998;SDS011;20549;50.042;8.968;2023-08-07T12:30:23;2.47;;;2.10;;
30998;SDS011;20549;50.042;8.968;2023-08-07T12:32:50;2.52;;;1.90;;
30998;SDS011;20549;50.042;8.968;2023-08-07T12:35:16;2.65;;;1.98;;
30998;SDS011;20549;50.042;8.968;2023-08-07T12:37:43;2.22;;;2.00;;
30998;SDS011;20549;50.042;8.968;2023-08-07T12:40:10;1.70;;;1.57;;
30998;SDS011;20549;50.042;8.968;2023-08-07T12:42:36;3.92;;;2.37;;
30998;SDS011;20549;50.042;8.968;2023-08-07T12:45:03;3.52;;;2.08;;
30998;SDS011;20549;50.042;8.968;2023-08-07T12:47:29;2.52;;;2.10;;
30998;SDS011;20549;50.042;8.968;2023-08-07T12:49:56;2.37;;;1.80;;
30998;SDS011;20549;50.042;8.968;2023-08-07T12:52:23;1.72;;;1.60;;
30998;SDS011;20549;50.042;8.968;2023-08-07T12:54:49;1.35;;;1.25;;
30998;SDS011;20549;50.042;8.968;2023-08-07T12:57:16;2.17;;;1.65;;
30998;SDS011;20549;50.042;8.968;2023-08-07T12:59:42;2.27;;;1.70;;
30998;SDS011;20549;50.042;8.968;2023-08-07T13:02:09;2.45;;;1.55;;
30998;SDS011;20549;50.042;8.968;2023-08-07T13:04:36;2.50;;;1.80;;
30998;SDS011;20549;50.042;8.968;2023-08-07T13:07:02;1.60;;;1.50;;
30998;SDS011;20549;50.042;8.968;2023-08-07T13:09:29;1.92;;;1.32;;
30998;SDS011;20549;50.042;8.968;2023-08-07T13:11:55;2.87;;;1.50;;
30998;SDS011;20549;50.042;8.968;2023-08-07T13:14:22;1.20;;;1.10;;
30998;SDS011;20549;50.042;8.968;2023-08-07T13:16:49;2.22;;;1.60;;
30998;SDS011;20549;50.042;8.968;2023-08-07T13:19:15;3.67;;;1.62;;
30998;SDS011;20549;50.042;8.968;2023-08-07T13:21:42;1.98;;;1.77;;
30998;SDS011;20549;50.042;8.968;2023-08-07T13:24:08;1.95;;;1.40;;
30998;SDS011;20549;50.042;8.968;2023-08-07T13:26:35;1.77;;;1.40;;
30998;SDS011;20549;50.042;8.968;2023-08-07T13:29:01;1.67;;;1.47;;
30998;SDS011;20549;50.042;8.968;2023-08-07T13:31:28;3.20;;;1.60;;
30998;SDS011;20549;50.042;8.968;2023-08-07T13:33:55;1.37;;;1.27;;
30998;SDS011;20549;50.042;8.968;2023-08-07T13:36:21;1.40;;;1.30;;
30998;SDS011;20549;50.042;8.968;2023-08-07T13:38:48;2.08;;;1.60;;
30998;SDS011;20549;50.042;8.968;2023-08-07T13:41:14;3.90;;;1.65;;
30998;SDS011;20549;50.042;8.968;2023-08-07T13:43:41;1.95;;;1.37;;
30998;SDS011;20549;50.042;8.968;2023-08-07T13:46:08;2.60;;;1.50;;
30998;SDS011;20549;50.042;8.968;2023-08-07T13:48:34;1.55;;;1.40;;
30998;SDS011;20549;50.042;8.968;2023-08-07T13:51:01;2.22;;;1.47;;
30998;SDS011;20549;50.042;8.968;2023-08-07T13:53:27;3.72;;;1.50;;
30998;SDS011;20549;50.042;8.968;2023-08-07T13:55:54;2.50;;;1.45;;
30998;SDS011;20549;50.042;8.968;2023-08-07T13:58:21;2.05;;;1.50;;
30998;SDS011;20549;50.042;8.968;2023-08-07T14:00:47;1.27;;;1.12;;
30998;SDS011;20549;50.042;8.968;2023-08-07T14:03:14;1.60;;;1.45;;
30998;SDS011;20549;50.042;8.968;2023-08-07T14:05:40;1.27;;;1.17;;
30998;SDS011;20549;50.042;8.968;2023-08-07T14:08:07;2.05;;;1.20;;
30998;SDS011;20549;50.042;8.968;2023-08-07T14:10:33;1.37;;;1.27;;
30998;SDS011;20549;50.042;8.968;2023-08-07T14:13:00;2.10;;;1.40;;
30998;SDS011;20549;50.042;8.968;2023-08-07T14:15:27;2.02;;;1.30;;
30998;SDS011;20549;50.042;8.968;2023-08-07T14:17:53;2.12;;;1.35;;
30998;SDS011;20549;50.042;8.968;2023-08-07T14:20:20;1.40;;;1.22;;
30998;SDS011;20549;50.042;8.968;2023-08-07T14:22:46;2.40;;;1.47;;
30998;SDS011;20549;50.042;8.968;2023-08-07T14:25:13;2.35;;;1.42;;
30998;SDS011;20549;50.042;8.968;2023-08-07T14:27:40;1.67;;;1.40;;
30998;SDS011;20549;50.042;8.968;2023-08-07T14:30:06;3.92;;;1.67;;
30998;SDS011;20549;50.042;8.968;2023-08-07T14:32:33;1.82;;;1.50;;
30998;SDS011;20549;50.042;8.968;2023-08-07T14:34:59;3.60;;;1.52;;
30998;SDS011;20549;50.042;8.968;2023-08-07T14:37:26;1.30;;;1.20;;
30998;SDS011;20549;50.042;8.968;2023-08-07T14:39:53;1.85;;;1.70;;
30998;SDS011;20549;50.042;8.968;2023-08-07T14:42:19;3.12;;;1.65;;
30998;SDS011;20549;50.042;8.968;2023-08-07T14:44:46;1.52;;;1.20;;
30998;SDS011;20549;50.042;8.968;2023-08-07T14:47:12;2.50;;;1.55;;
30998;SDS011;20549;50.042;8.968;2023-08-07T14:49:39;1.90;;;1.35;;
30998;SDS011;20549;50.042;8.968;2023-08-07T14:52:06;1.67;;;1.20;;
30998;SDS011;20549;50.042;8.968;2023-08-07T14:54:32;1.25;;;1.10;;
30998;SDS011;20549;50.042;8.968;2023-08-07T14:56:59;3.27;;;1.60;;
30998;SDS011;20549;50.042;8.968;2023-08-07T14:59:25;1.98;;;1.37;;
30998;SDS011;20549;50.042;8.968;2023-08-07T15:01:52;1.62;;;1.30;;